CYHICYMM [ZE999]

Details From CYHI - ULUKHAKTOK HOLMAN
To CYMM - FORT MCMURRAY
Flight Number ZE999
Tags decoded
Created
Modified
Stats Distance 897 nm / 1,661 km
Max Altitude 0 ft / 0 m
Waypoints 6
Social Downloads 1
Likes 0
Share VATSIM

Download

Looking for another format? Having issues loading an existing format? Contact us
Advertisement - Login to hide

Notes

Requested: CYHI DUKPA GABRO ALSAB ALPIM CYMM

Route

CYHI DUKPA GABRO ALSAB ALPIM CYMM

ID Type Via Altitude Latitude Longitude Leg Dist Tot Dist Heading (true) Name
O CYHI APT - 0 ft / 0 m 70.76305˚ -117.80583˚ - 0 nm - ULUKHAKTOK HOLMAN
DUKPA FIX - 0 ft / 0 m 65.15250˚ -110.00000˚ 379 nm 379 nm 149° / 156° -
GABRO FIX - 0 ft / 0 m 63.22722˚ -110.00000˚ 115 nm 495 nm 180° / 180° -
ALSAB FIX - 0 ft / 0 m 61.51500˚ -110.00000˚ 102 nm 597 nm 180° / 180° -
ALPIM FIX - 0 ft / 0 m 57.46333˚ -110.43833˚ 243 nm 841 nm 183° / 183° -
O CYMM APT - 0 ft / 0 m 56.65264˚ -111.22195˚ 55 nm 896 nm 208° / 207° FORT MCMURRAY

Altitude Profile

Advertisement - Login to hide

Weather


0- 5 10 15 20 25 30 35+ Temperature / ° C

Clouds and Precipitation
Forecast for 2018-05-23 06:00 UTC. Updated an hour ago

Ground ~20,000 ft ~40,000 ft Winds

CYHI

Details ICAO CYHI (YHI)
Name ULUKHAKTOK HOLMAN
Region Canada
Timezone America/Yellowknife (UTC-6.0)
Stats Elevation 117 ft / 36 m (AMSL)
Location 70.763054° -117.805832°
Runways 1
Magnetic Variation 18.583° E

METAR

Not found

TAF

TAF CYHI 221838Z 2219/2224 08017G27KT P6SM BKN160 TEMPO 2219/2224 BKN130 RMK NXT FCST WILL BE ISSUED AT 231545Z

Decode

Departure Runways

ID Width Length Bearing (true) Bearing (mag) Surface Threshold Offset Overrun Length
06T 100 ft / 30 m 4,284 ft / 1,306 m 61.97° 43.39° Gravel 0 ft / 0 m 0 ft / 0 m
24T 100 ft / 30 m 4,284 ft / 1,306 m 242.00° 223.42° Gravel 0 ft / 0 m 0 ft / 0 m

CYMM

Details ICAO CYMM (YMM)
Name FORT MCMURRAY
Region Canada
Timezone America/Edmonton (UTC-6.0)
Stats Elevation 1,211 ft / 369 m (AMSL)
Location 56.652639° -111.221950°
Runways 1
Magnetic Variation 13.675° E

METAR

CYMM 230400Z AUTO 21005KT 9SM CLR 23/04 A2981 RMK SLP099 DENSITY ALT 2500FT

Decode

TAF

TAF CYMM 230038Z 2301/2313 24012KT P6SM FEW240 FM230600 VRB03KT P6SM SKC RMK FCST BASED ON AUTO OBS. NXT FCST BY 230700Z

Decode

Destination Runways

ID Width Length Bearing (true) Bearing (mag) Surface Threshold Offset Overrun Length
07 150 ft / 46 m 6,019 ft / 1,835 m 89.02° 75.35° Asphalt 0 ft / 0 m 0 ft / 0 m
25 150 ft / 46 m 6,019 ft / 1,835 m 269.05° 255.38° Asphalt 0 ft / 0 m 0 ft / 0 m

Approach Navaids

Runway Type Ident Frequency Range Bearing (true) Bearing (mag) Slope Elevation
25 Localiser IMM 109.90 MHz 18 nm / 33 km 268.96° 255.29° - 1,198 ft / 365 m (AMSL)
25 Glidescope IMM 109.90 MHz 10 nm / 19 km 269.03° 255.36° 3.00° 1,195 ft / 364 m (AMSL)